createdAt,value
2018-08-31T00:08:58.192Z,27.8
2018-08-31T00:18:57.435Z,27.8
2018-08-31T00:28:56.676Z,27.8
2018-08-31T00:38:55.920Z,27.8
2018-08-31T00:48:55.160Z,27.8
2018-08-31T00:58:54.400Z,27.8
2018-08-31T01:08:53.646Z,27.8
2018-08-31T01:18:52.888Z,27.7
2018-08-31T01:28:52.128Z,27.8
2018-08-31T01:38:51.375Z,27.8
2018-08-31T01:48:50.614Z,27.7
2018-08-31T01:58:49.859Z,27.7
2018-08-31T02:08:49.098Z,27.7
2018-08-31T02:18:48.339Z,27.7
2018-08-31T02:28:47.580Z,27.7
2018-08-31T02:38:46.822Z,27.7
2018-08-31T02:48:46.069Z,27.6
2018-08-31T02:58:45.304Z,27.6
2018-08-31T03:08:44.545Z,27.6
2018-08-31T03:18:43.784Z,27.6
2018-08-31T03:28:43.024Z,27.6
2018-08-31T03:38:42.263Z,27.6
2018-08-31T03:48:41.508Z,27.6
2018-08-31T03:58:40.747Z,27.5
2018-08-31T04:08:39.985Z,27.6
2018-08-31T04:18:39.233Z,27.6
2018-08-31T04:28:38.471Z,27.6
2018-08-31T04:38:37.709Z,27.6
2018-08-31T04:48:36.952Z,27.6
2018-08-31T04:58:36.192Z,27.6
2018-08-31T05:08:35.434Z,27.6
2018-08-31T05:18:34.675Z,27.6
2018-08-31T05:28:34.001Z,27.6
2018-08-31T05:38:33.160Z,27.6
2018-08-31T05:48:32.401Z,27.6
2018-08-31T05:58:31.644Z,27.6
2018-08-31T06:08:30.891Z,27.6
2018-08-31T06:18:30.127Z,27.6
2018-08-31T06:28:29.369Z,27.6
2018-08-31T06:38:28.609Z,27.6
2018-08-31T06:48:27.849Z,27.6
2018-08-31T06:58:27.140Z,27.6
2018-08-31T07:08:26.333Z,27.6
2018-08-31T07:18:25.572Z,27.5
2018-08-31T07:28:24.814Z,27.5
2018-08-31T07:38:24.057Z,27.4
2018-08-31T07:48:23.300Z,27.6
2018-08-31T07:58:22.542Z,27.6
2018-08-31T08:08:21.793Z,27.6
2018-08-31T08:18:21.030Z,27.6
2018-08-31T08:28:20.327Z,27.6
2018-08-31T08:38:19.510Z,27.6
2018-08-31T08:48:18.808Z,27.6
2018-08-31T08:58:18.071Z,27.6
2018-08-31T09:08:17.236Z,27.6
2018-08-31T09:18:16.524Z,27.6
2018-08-31T09:28:15.724Z,27.6
2018-08-31T09:38:15.020Z,27.6
2018-08-31T09:48:14.207Z,27.6
2018-08-31T09:58:13.448Z,27.6
2018-08-31T10:08:12.696Z,27.6
2018-08-31T10:18:11.937Z,27.6
2018-08-31T10:28:11.178Z,27.6
2018-08-31T10:38:10.422Z,27.6
2018-08-31T10:48:09.669Z,27.6
2018-08-31T10:58:08.912Z,27.6
2018-08-31T11:08:08.157Z,27.7
2018-08-31T11:18:07.401Z,27.7
2018-08-31T11:28:06.639Z,27.8
2018-08-31T11:38:05.880Z,27.9
2018-08-31T11:48:05.123Z,27.9
2018-08-31T11:58:04.374Z,28.1
2018-08-31T12:08:03.615Z,28.1
2018-08-31T12:18:02.854Z,28.1
2018-08-31T12:28:02.094Z,28.2
2018-08-31T12:38:01.339Z,28.3
2018-08-31T12:48:00.578Z,28.2
2018-08-31T12:57:59.817Z,28.1
2018-08-31T13:07:59.064Z,28
2018-08-31T13:17:58.306Z,27.9
2018-08-31T13:27:57.550Z,27.9
2018-08-31T13:37:56.832Z,27.9
2018-08-31T13:47:56.034Z,27.9
2018-08-31T13:57:55.278Z,27.9
2018-08-31T14:07:54.526Z,27.9
2018-08-31T14:17:53.870Z,28
2018-08-31T14:27:53.021Z,27.9
2018-08-31T14:37:52.265Z,27.9
2018-08-31T14:47:51.518Z,28
2018-08-31T14:57:50.754Z,27.9
2018-08-31T15:07:49.997Z,27.9
2018-08-31T15:17:49.241Z,27.9
2018-08-31T15:27:48.488Z,27.8
2018-08-31T15:37:47.729Z,27.8
2018-08-31T15:47:46.969Z,27.6
2018-08-31T15:57:46.213Z,27.5
2018-08-31T16:07:45.464Z,27.4
2018-08-31T16:17:44.701Z,27.4
2018-08-31T16:27:43.942Z,27.4
2018-08-31T16:37:43.189Z,27.3
2018-08-31T16:47:42.429Z,27.2
2018-08-31T16:57:41.675Z,27.2
2018-08-31T17:07:40.981Z,27.1
2018-08-31T17:17:40.161Z,27
2018-08-31T17:27:39.404Z,26.9
2018-08-31T17:37:38.652Z,26.9
2018-08-31T17:47:37.898Z,26.8
2018-08-31T17:57:37.142Z,26.8
2018-08-31T18:07:36.385Z,27.1
2018-08-31T18:17:35.637Z,27.3
2018-08-31T18:27:34.873Z,27.3
2018-08-31T18:37:34.119Z,27.4
2018-08-31T18:47:33.357Z,27.4
2018-08-31T18:57:32.596Z,27.5
2018-08-31T19:07:31.842Z,27.5
2018-08-31T19:17:31.084Z,27.5
2018-08-31T19:27:30.325Z,27.6
2018-08-31T19:37:29.576Z,27.6
2018-08-31T19:47:28.809Z,27.6
2018-08-31T19:57:28.052Z,27.6
2018-08-31T20:07:27.293Z,27.6
2018-08-31T20:17:26.534Z,27.7
2018-08-31T20:27:25.771Z,27.7
2018-08-31T20:37:25.017Z,27.7
2018-08-31T20:47:24.311Z,27.7
2018-08-31T20:57:23.495Z,27.7
2018-08-31T21:07:22.736Z,27.7
2018-08-31T21:17:21.979Z,27.7
2018-08-31T21:27:21.224Z,27.8
2018-08-31T21:37:20.461Z,27.8
2018-08-31T21:47:19.711Z,27.8
2018-08-31T21:57:18.947Z,27.8
2018-08-31T22:07:18.193Z,27.8
2018-08-31T22:17:17.427Z,27.8
2018-08-31T22:27:16.672Z,27.8
2018-08-31T22:37:15.912Z,27.9
2018-08-31T22:47:15.148Z,27.9
2018-08-31T22:57:14.397Z,27.9
2018-08-31T23:07:13.636Z,27.9
2018-08-31T23:17:12.874Z,27.9
2018-08-31T23:27:12.113Z,27.9
2018-08-31T23:37:11.355Z,27.9
2018-08-31T23:47:10.597Z,27.9
2018-08-31T23:57:09.839Z,27.9
